Terminal Aerodrome Forecast
Issued by NWS

Home | Current Version | Previous Version | Text Only | Print | Product List | Glossary On
Versions: 1 2 3 4 5 6 7 8 9 10 11 12 13 14 15 16 17 18 19 20 21 22 23 24 25 26 27 28 29 30 31 32 33
000
FTUS41 KBOX 281723
TAFHYA
TAF
KHYA 281723Z 2818/2918 22015G25KT P6SM BKN015
     FM290000 23012G19KT P6SM -SHRA BKN050
     FM290200 24010KT 6SM BR BKN050
     FM290700 28004KT P6SM SCT250
     FM291600 05006KT P6SM FEW250=

USA.gov is the U.S. government's official web portal to all federal, state and local government web resources and services.